createdAt,value
2024-02-08T00:00:48.102Z,7.30
2024-02-08T00:03:41.951Z,7.29
2024-02-08T00:06:15.314Z,7.29
2024-02-08T00:08:55.634Z,7.28
2024-02-08T00:11:30.097Z,7.27
2024-02-08T00:14:04.373Z,7.25
2024-02-08T00:16:38.673Z,7.25
2024-02-08T00:19:12.863Z,7.23
2024-02-08T00:21:47.154Z,7.20
2024-02-08T00:24:21.894Z,7.19
2024-02-08T00:26:55.298Z,7.19
2024-02-08T00:29:29.707Z,7.17
2024-02-08T00:32:03.630Z,7.16
2024-02-08T00:34:40.271Z,7.15
2024-02-08T00:37:14.706Z,7.11
2024-02-08T00:39:50.930Z,7.08
2024-02-08T00:42:24.153Z,7.07
2024-02-08T00:44:58.815Z,7.07
2024-02-08T00:47:32.950Z,7.06
2024-02-08T00:50:07.359Z,7.06
2024-02-08T00:52:42.856Z,7.05
2024-02-08T00:55:17.966Z,7.05
2024-02-08T00:57:51.529Z,7.03
2024-02-08T01:00:25.230Z,7.03
2024-02-08T01:03:00.640Z,7.01
2024-02-08T01:05:34.307Z,7.00
2024-02-08T01:08:09.950Z,6.98
2024-02-08T01:10:43.478Z,6.96
2024-02-08T01:13:20.123Z,6.94
2024-02-08T01:15:55.524Z,6.91
2024-02-08T01:18:29.581Z,6.89
2024-02-08T01:21:04.134Z,6.86
2024-02-08T01:23:37.954Z,6.84
2024-02-08T01:26:11.462Z,6.81
2024-02-08T01:28:45.456Z,6.78
2024-02-08T01:31:19.139Z,6.75
2024-02-08T01:33:53.161Z,6.73
2024-02-08T01:36:26.516Z,6.71
2024-02-08T01:39:00.809Z,6.70
2024-02-08T01:41:36.354Z,6.70
2024-02-08T01:44:10.134Z,6.68
2024-02-08T01:46:43.842Z,6.67
2024-02-08T01:49:20.224Z,6.65
2024-02-08T01:52:02.307Z,6.64
2024-02-08T01:54:37.814Z,6.61
2024-02-08T01:57:12.995Z,6.58
2024-02-08T01:59:55.029Z,6.54
2024-02-08T02:02:32.017Z,6.52
2024-02-08T02:05:06.169Z,6.49
2024-02-08T02:07:40.082Z,6.48
2024-02-08T02:10:14.518Z,6.46
2024-02-08T02:12:49.433Z,6.44
2024-02-08T02:15:23.092Z,6.43
2024-02-08T02:17:57.556Z,6.40
2024-02-08T02:20:32.582Z,6.38
2024-02-08T02:23:11.226Z,6.36
2024-02-08T02:25:44.838Z,6.34
2024-02-08T02:28:19.453Z,6.32
2024-02-08T02:30:53.111Z,6.31
2024-02-08T02:33:28.254Z,6.28
2024-02-08T02:36:02.354Z,6.22
2024-02-08T02:38:36.874Z,6.16
2024-02-08T02:41:10.525Z,6.13
2024-02-08T02:43:46.522Z,6.12
2024-02-08T02:46:24.189Z,6.12
2024-02-08T02:48:57.648Z,6.08
2024-02-08T02:51:32.441Z,6.06
2024-02-08T02:54:06.811Z,6.04
2024-02-08T02:56:40.258Z,6.02
2024-02-08T02:59:18.066Z,6.00
2024-02-08T03:01:51.724Z,6.04
2024-02-08T03:04:25.211Z,6.09
2024-02-08T03:06:59.220Z,6.15
2024-02-08T03:09:33.268Z,6.18
2024-02-08T03:12:11.584Z,6.21
2024-02-08T03:14:59.314Z,6.24
2024-02-08T03:17:34.635Z,6.27
2024-02-08T03:20:13.204Z,6.27
2024-02-08T03:22:47.176Z,6.23
2024-02-08T03:25:23.561Z,6.20
2024-02-08T03:27:57.817Z,6.16
2024-02-08T03:30:33.752Z,6.12
2024-02-08T03:33:17.747Z,6.08
2024-02-08T03:35:55.796Z,6.04
2024-02-08T03:38:29.015Z,6.02
2024-02-08T03:41:02.393Z,6.01
2024-02-08T03:43:36.034Z,5.99
2024-02-08T03:46:09.783Z,5.97
2024-02-08T03:48:48.064Z,5.96
2024-02-08T03:51:24.553Z,5.96
2024-02-08T03:54:02.180Z,5.96
2024-02-08T03:56:38.769Z,5.94
2024-02-08T03:59:14.162Z,5.90
2024-02-08T04:01:54.796Z,5.84
2024-02-08T04:04:30.792Z,5.81
2024-02-08T04:07:16.627Z,5.81
2024-02-08T04:10:12.376Z,5.81
2024-02-08T04:13:03.205Z,5.81
2024-02-08T04:15:55.494Z,5.81
2024-02-08T04:18:47.553Z,5.83
2024-02-08T04:21:38.725Z,5.88
2024-02-08T04:24:29.997Z,5.95
2024-02-08T04:27:20.621Z,6.01
2024-02-08T04:30:11.337Z,6.08
2024-02-08T04:33:02.582Z,6.15
2024-02-08T04:35:53.399Z,6.22
2024-02-08T04:38:44.071Z,6.29
2024-02-08T04:41:35.426Z,6.38
2024-02-08T04:44:26.672Z,6.48
2024-02-08T04:47:17.567Z,6.59
2024-02-08T04:50:05.022Z,6.68
2024-02-08T04:52:53.977Z,6.79
2024-02-08T04:55:28.259Z,6.87
2024-02-08T04:58:27.731Z,6.94
2024-02-08T05:00:55.449Z,6.99
2024-02-08T05:03:29.409Z,7.01
2024-02-08T05:06:05.968Z,7.03
2024-02-08T05:08:39.694Z,7.07
2024-02-08T05:11:16.122Z,7.07
2024-02-08T05:13:52.023Z,6.96
2024-02-08T05:16:28.380Z,6.91
2024-02-08T05:19:02.186Z,6.91
2024-02-08T05:21:41.280Z,6.94
2024-02-08T05:24:15.494Z,6.98
2024-02-08T05:26:48.968Z,7.06
2024-02-08T05:29:22.242Z,7.14
2024-02-08T05:31:56.008Z,7.22
2024-02-08T05:34:29.983Z,7.32
2024-02-08T05:37:04.833Z,7.43
2024-02-08T05:39:38.732Z,7.55
2024-02-08T05:42:15.255Z,7.68
2024-02-08T05:44:49.600Z,7.82
2024-02-08T05:47:28.016Z,7.97
2024-02-08T05:50:08.614Z,8.11
2024-02-08T05:52:44.178Z,8.25
2024-02-08T05:55:21.340Z,8.40
2024-02-08T05:58:00.256Z,8.55
2024-02-08T06:00:37.788Z,8.68
2024-02-08T06:03:11.114Z,8.80
2024-02-08T06:05:51.029Z,8.91
2024-02-08T06:08:28.175Z,9.05
2024-02-08T06:10:59.877Z,9.18
2024-02-08T06:13:39.754Z,9.23
2024-02-08T06:16:28.341Z,9.22
2024-02-08T06:19:05.807Z,9.17
2024-02-08T06:21:43.073Z,9.19
2024-02-08T06:24:34.065Z,9.22
2024-02-08T06:27:15.051Z,9.31
2024-02-08T06:29:50.385Z,9.42
2024-02-08T06:32:35.868Z,9.49
2024-02-08T06:35:11.108Z,9.61
2024-02-08T06:37:46.115Z,9.80
2024-02-08T06:40:23.847Z,10.01
2024-02-08T06:43:14.612Z,10.22
2024-02-08T06:46:11.571Z,10.49
2024-02-08T06:49:11.804Z,10.80
2024-02-08T06:52:02.555Z,11.69
2024-02-08T06:54:53.297Z,15.09
2024-02-08T06:57:59.122Z,18.90
2024-02-08T07:00:49.840Z,22.50
2024-02-08T07:03:43.443Z,25.29
2024-02-08T07:06:42.940Z,27.83
2024-02-08T07:09:41.040Z,30.21
2024-02-08T07:12:46.479Z,32.26
2024-02-08T07:15:37.037Z,33.90
2024-02-08T07:18:28.327Z,34.92
2024-02-08T07:21:24.421Z,36.03
2024-02-08T07:24:15.409Z,37.03
2024-02-08T07:27:09.046Z,37.88
2024-02-08T07:30:03.580Z,38.62
2024-02-08T07:32:54.653Z,39.09
2024-02-08T07:35:45.212Z,39.26
2024-02-08T07:38:36.171Z,39.79
2024-02-08T07:41:09.873Z,40.55
2024-02-08T07:43:56.211Z,41.18
2024-02-08T07:46:32.407Z,41.56
2024-02-08T07:49:07.529Z,41.60
2024-02-08T07:51:45.027Z,41.83
2024-02-08T07:54:22.147Z,42.07
2024-02-08T07:57:01.253Z,42.30
2024-02-08T07:59:36.658Z,41.79
2024-02-08T08:02:13.994Z,40.10
2024-02-08T08:04:54.883Z,37.19
2024-02-08T08:07:28.736Z,34.46
2024-02-08T08:10:10.687Z,32.26
2024-02-08T08:12:48.586Z,30.49
2024-02-08T08:15:23.849Z,29.16
2024-02-08T08:18:04.833Z,28.01
2024-02-08T08:20:58.958Z,26.99
2024-02-08T08:23:32.742Z,25.96
2024-02-08T08:26:32.064Z,25.13
2024-02-08T08:29:06.241Z,24.26
2024-02-08T08:31:48.001Z,23.64
2024-02-08T08:34:39.657Z,23.01
2024-02-08T08:37:26.842Z,22.50
2024-02-08T08:40:25.696Z,22.05
2024-02-08T08:42:59.516Z,21.58
2024-02-08T08:45:33.587Z,21.17
2024-02-08T08:48:07.906Z,20.74
2024-02-08T08:50:45.354Z,20.43
2024-02-08T08:53:21.298Z,20.20
2024-02-08T08:55:55.697Z,19.99
2024-02-08T08:58:40.940Z,19.80
2024-02-08T09:01:20.432Z,19.62
2024-02-08T09:04:27.854Z,19.45
2024-02-08T09:07:10.582Z,19.15
2024-02-08T09:09:59.176Z,18.88
2024-02-08T09:12:38.650Z,18.61
2024-02-08T09:15:28.661Z,18.33
2024-02-08T09:18:10.776Z,18.20
2024-02-08T09:20:44.884Z,18.11
2024-02-08T09:23:19.915Z,18.04
2024-02-08T09:25:55.329Z,18.03
2024-02-08T09:28:37.540Z,18.05
2024-02-08T09:31:17.912Z,18.05
2024-02-08T09:34:03.103Z,17.93
2024-02-08T09:36:36.837Z,17.89
2024-02-08T09:39:16.665Z,17.95
2024-02-08T09:41:50.049Z,18.06
2024-02-08T09:44:27.614Z,18.19
2024-02-08T09:47:06.139Z,18.32
2024-02-08T09:49:40.503Z,18.37
2024-02-08T09:52:25.802Z,18.39
2024-02-08T09:55:07.988Z,18.25
2024-02-08T09:57:47.844Z,18.15
2024-02-08T10:00:56.477Z,18.20
2024-02-08T10:03:34.897Z,18.17
2024-02-08T10:06:25.950Z,18.21
2024-02-08T10:09:10.401Z,18.38
2024-02-08T10:11:46.768Z,18.54
2024-02-08T10:14:26.929Z,18.72
2024-02-08T10:17:03.339Z,18.85
2024-02-08T10:19:49.804Z,18.84
2024-02-08T10:22:28.807Z,18.82
2024-02-08T10:25:19.841Z,18.90
2024-02-08T10:28:04.490Z,19.01
2024-02-08T10:30:42.774Z,19.10
2024-02-08T10:33:20.277Z,19.16
2024-02-08T10:35:55.055Z,19.18
2024-02-08T10:38:34.138Z,19.12
2024-02-08T10:41:13.450Z,19.02
2024-02-08T10:43:58.932Z,18.93
2024-02-08T10:46:35.989Z,18.94
2024-02-08T10:49:10.876Z,19.03
2024-02-08T10:51:45.230Z,19.10
2024-02-08T10:54:24.878Z,19.13
2024-02-08T10:57:10.287Z,19.12
2024-02-08T10:59:49.564Z,19.19
2024-02-08T11:02:37.263Z,19.32
2024-02-08T11:05:23.347Z,19.50
2024-02-08T11:07:57.904Z,19.71
2024-02-08T11:10:34.176Z,19.80
2024-02-08T11:13:12.547Z,19.77
2024-02-08T11:15:51.143Z,19.71
2024-02-08T11:18:37.242Z,19.51
2024-02-08T11:21:14.904Z,19.39
2024-02-08T11:23:52.827Z,19.31
2024-02-08T11:26:29.053Z,19.14
2024-02-08T11:29:20.513Z,18.97
2024-02-08T11:31:57.105Z,18.84
2024-02-08T11:34:46.850Z,18.82
2024-02-08T11:37:21.433Z,18.85
2024-02-08T11:40:11.103Z,18.81
2024-02-08T11:42:46.130Z,18.76
2024-02-08T11:45:23.968Z,18.77
2024-02-08T11:47:59.940Z,18.79
2024-02-08T11:50:38.080Z,18.74
2024-02-08T11:53:11.860Z,18.67
2024-02-08T11:55:47.077Z,18.65
2024-02-08T11:58:23.094Z,18.61
2024-02-08T12:00:58.065Z,18.54
2024-02-08T12:03:32.291Z,18.46
2024-02-08T12:06:07.028Z,18.39
2024-02-08T12:08:46.843Z,18.38
2024-02-08T12:11:23.973Z,18.40
2024-02-08T12:14:04.688Z,18.39
2024-02-08T12:16:48.605Z,18.30
2024-02-08T12:19:23.379Z,18.11
2024-02-08T12:22:05.812Z,17.96
2024-02-08T12:24:41.971Z,17.87
2024-02-08T12:27:27.028Z,17.82
2024-02-08T12:30:02.940Z,17.79
2024-02-08T12:32:36.823Z,17.70
2024-02-08T12:35:16.108Z,17.65
2024-02-08T12:37:50.144Z,17.61
2024-02-08T12:40:23.877Z,17.54
2024-02-08T12:42:57.519Z,17.41
2024-02-08T12:45:31.281Z,17.35
2024-02-08T12:48:06.284Z,17.30
2024-02-08T12:50:42.533Z,17.24
2024-02-08T12:53:20.268Z,17.17
2024-02-08T12:55:53.997Z,17.00
2024-02-08T12:58:27.525Z,16.83
2024-02-08T13:01:06.532Z,16.71
2024-02-08T13:03:41.003Z,16.64
2024-02-08T13:06:17.576Z,16.57
2024-02-08T13:08:51.102Z,16.47
2024-02-08T13:11:25.675Z,16.37
2024-02-08T13:14:09.110Z,16.31
2024-02-08T13:16:42.521Z,16.27
2024-02-08T13:19:16.260Z,16.23
2024-02-08T13:21:49.694Z,16.21
2024-02-08T13:24:23.283Z,16.18
2024-02-08T13:26:56.689Z,16.15
2024-02-08T13:29:30.210Z,16.11
2024-02-08T13:32:03.720Z,16.08
2024-02-08T13:34:38.051Z,16.04
2024-02-08T13:37:19.836Z,16.00
2024-02-08T13:40:01.992Z,15.96
2024-02-08T13:42:51.093Z,15.93
2024-02-08T13:45:33.630Z,15.87
2024-02-08T13:48:14.772Z,15.81
2024-02-08T13:50:49.380Z,15.74
2024-02-08T13:53:22.824Z,15.69
2024-02-08T13:55:56.863Z,15.64
2024-02-08T13:58:37.397Z,15.58
2024-02-08T14:01:13.264Z,15.52
2024-02-08T14:03:47.140Z,15.46
2024-02-08T14:06:27.139Z,15.40
2024-02-08T14:09:20.699Z,15.34
2024-02-08T14:11:57.461Z,15.28
2024-02-08T14:14:42.087Z,15.21
2024-02-08T14:17:22.244Z,15.11
2024-02-08T14:19:57.332Z,15.03
2024-02-08T14:22:40.518Z,14.95
2024-02-08T14:25:25.494Z,14.87
2024-02-08T14:27:59.581Z,14.80
2024-02-08T14:30:35.773Z,14.73
2024-02-08T14:33:09.330Z,14.65
2024-02-08T14:35:43.071Z,14.58
2024-02-08T14:38:17.276Z,14.52
2024-02-08T14:40:52.946Z,14.45
2024-02-08T14:43:33.606Z,14.38
2024-02-08T14:46:07.880Z,14.32
2024-02-08T14:48:41.238Z,14.25
2024-02-08T14:51:28.588Z,14.18
2024-02-08T14:54:00.971Z,14.11
2024-02-08T14:56:37.103Z,14.03
2024-02-08T14:59:15.163Z,13.97
2024-02-08T15:01:54.600Z,13.92
2024-02-08T15:04:32.553Z,13.85
2024-02-08T15:07:11.633Z,13.79
2024-02-08T15:09:50.880Z,13.75
2024-02-08T15:12:34.397Z,13.71
2024-02-08T15:15:20.481Z,13.67
2024-02-08T15:17:54.263Z,13.63
2024-02-08T15:20:45.373Z,13.60
2024-02-08T15:23:32.277Z,13.56
2024-02-08T15:26:15.084Z,13.52
2024-02-08T15:28:57.502Z,13.48
2024-02-08T15:31:48.006Z,13.44
2024-02-08T15:34:29.519Z,13.39
2024-02-08T15:37:16.644Z,13.35
2024-02-08T15:40:11.379Z,13.31
2024-02-08T15:42:45.912Z,13.25
2024-02-08T15:45:23.329Z,13.19
2024-02-08T15:48:12.730Z,13.14
2024-02-08T15:50:48.151Z,13.09
2024-02-08T15:53:25.290Z,13.04
2024-02-08T15:55:59.167Z,13.00
2024-02-08T15:58:36.229Z,12.95
2024-02-08T16:01:19.638Z,12.90
2024-02-08T16:03:58.184Z,12.84
2024-02-08T16:06:44.866Z,12.79
2024-02-08T16:09:35.145Z,12.75
2024-02-08T16:12:26.471Z,12.71
2024-02-08T16:15:09.428Z,12.65
2024-02-08T16:17:59.902Z,12.58
2024-02-08T16:20:40.323Z,12.53
2024-02-08T16:23:16.522Z,12.51
2024-02-08T16:26:03.870Z,12.49
2024-02-08T16:28:47.303Z,12.47
2024-02-08T16:31:30.809Z,12.43
2024-02-08T16:34:24.728Z,12.40
2024-02-08T16:37:05.835Z,12.39
2024-02-08T16:39:57.727Z,12.37
2024-02-08T16:42:37.516Z,12.36
2024-02-08T16:45:20.480Z,12.35
2024-02-08T16:48:10.155Z,12.33
2024-02-08T16:50:48.931Z,12.31
2024-02-08T16:53:24.046Z,12.28
2024-02-08T16:56:05.895Z,12.26
2024-02-08T16:58:51.920Z,12.22
2024-02-08T17:01:30.904Z,12.19
2024-02-08T17:04:30.813Z,12.16
2024-02-08T17:07:12.457Z,12.13
2024-02-08T17:09:47.715Z,12.09
2024-02-08T17:12:29.669Z,12.07
2024-02-08T17:15:22.419Z,12.04
2024-02-08T17:18:03.233Z,12.02
2024-02-08T17:20:44.406Z,11.98
2024-02-08T17:23:21.320Z,11.95
2024-02-08T17:26:08.004Z,11.93
2024-02-08T17:28:51.588Z,11.89
2024-02-08T17:31:30.405Z,11.86
2024-02-08T17:34:11.629Z,11.83
2024-02-08T17:36:48.902Z,11.80
2024-02-08T17:39:37.436Z,11.78
2024-02-08T17:42:12.496Z,11.75
2024-02-08T17:44:56.509Z,11.72
2024-02-08T17:47:31.606Z,11.69
2024-02-08T17:50:06.686Z,11.67
2024-02-08T17:52:40.235Z,11.64
2024-02-08T17:55:16.999Z,11.61
2024-02-08T17:57:57.876Z,11.59
2024-02-08T18:00:31.493Z,11.55
2024-02-08T18:03:05.068Z,11.53
2024-02-08T18:05:40.091Z,11.51
2024-02-08T18:08:15.400Z,11.49
2024-02-08T18:10:52.370Z,11.47
2024-02-08T18:13:28.229Z,11.42
2024-02-08T18:16:11.770Z,11.37
2024-02-08T18:18:46.486Z,11.32
2024-02-08T18:21:20.926Z,11.27
2024-02-08T18:23:55.122Z,11.24
2024-02-08T18:26:29.434Z,11.20
2024-02-08T18:29:05.111Z,11.16
2024-02-08T18:31:39.285Z,11.15
2024-02-08T18:34:14.075Z,11.13
2024-02-08T18:36:48.399Z,11.10
2024-02-08T18:39:28.754Z,11.07
2024-02-08T18:42:08.500Z,11.03
2024-02-08T18:44:44.491Z,11.00
2024-02-08T18:47:19.883Z,10.97
2024-02-08T18:49:56.645Z,10.94
2024-02-08T18:52:32.439Z,10.91
2024-02-08T18:55:11.471Z,10.89
2024-02-08T18:57:46.300Z,10.86
2024-02-08T19:00:24.368Z,10.80
2024-02-08T19:02:57.983Z,10.75
2024-02-08T19:05:32.896Z,10.73
2024-02-08T19:08:07.878Z,10.70
2024-02-08T19:10:45.235Z,10.68
2024-02-08T19:13:27.312Z,10.61
2024-02-08T19:16:03.551Z,10.49
2024-02-08T19:18:46.050Z,10.42
2024-02-08T19:21:29.497Z,10.39
2024-02-08T19:24:04.315Z,10.36
2024-02-08T19:26:39.196Z,10.34
2024-02-08T19:29:19.281Z,10.34
2024-02-08T19:31:53.569Z,10.30
2024-02-08T19:34:30.972Z,10.27
2024-02-08T19:37:05.271Z,10.25
2024-02-08T19:39:43.008Z,10.22
2024-02-08T19:42:23.790Z,10.20
2024-02-08T19:45:01.856Z,10.16
2024-02-08T19:47:39.545Z,10.11
2024-02-08T19:50:18.893Z,10.07
2024-02-08T19:52:54.011Z,10.04
2024-02-08T19:55:35.352Z,10.01
2024-02-08T19:58:09.746Z,9.98
2024-02-08T20:00:47.533Z,9.95
2024-02-08T20:03:28.548Z,9.93
2024-02-08T20:06:03.097Z,9.89
2024-02-08T20:08:39.906Z,9.87
2024-02-08T20:11:14.255Z,9.84
2024-02-08T20:13:48.110Z,9.81
2024-02-08T20:16:28.745Z,9.79
2024-02-08T20:19:07.194Z,9.76
2024-02-08T20:21:41.836Z,9.74
2024-02-08T20:24:15.139Z,9.69
2024-02-08T20:26:49.835Z,9.65
2024-02-08T20:29:24.888Z,9.61
2024-02-08T20:31:58.258Z,9.58
2024-02-08T20:34:34.970Z,9.56
2024-02-08T20:37:15.386Z,9.53
2024-02-08T20:39:54.108Z,9.50
2024-02-08T20:42:30.391Z,9.47
2024-02-08T20:45:12.296Z,9.45
2024-02-08T20:47:46.222Z,9.44
2024-02-08T20:50:22.423Z,9.40
2024-02-08T20:52:56.645Z,9.36
2024-02-08T20:55:36.800Z,9.32
2024-02-08T20:58:14.181Z,9.29
2024-02-08T21:00:49.740Z,9.25
2024-02-08T21:03:28.274Z,9.22
2024-02-08T21:06:04.168Z,9.21
2024-02-08T21:08:41.879Z,9.21
2024-02-08T21:11:16.116Z,9.21
2024-02-08T21:13:50.528Z,9.21
2024-02-08T21:16:24.853Z,9.20
2024-02-08T21:18:58.417Z,9.17
2024-02-08T21:21:33.498Z,9.16
2024-02-08T21:24:07.479Z,9.14
2024-02-08T21:26:41.305Z,9.10
2024-02-08T21:29:15.984Z,9.06
2024-02-08T21:31:49.468Z,9.03
2024-02-08T21:34:23.358Z,9.02
2024-02-08T21:36:56.848Z,8.99
2024-02-08T21:39:33.264Z,8.98
2024-02-08T21:42:08.425Z,8.98
2024-02-08T21:44:41.937Z,8.98
2024-02-08T21:47:17.780Z,8.97
2024-02-08T21:49:51.210Z,8.96
2024-02-08T21:52:25.349Z,8.95
2024-02-08T21:54:58.773Z,8.94
2024-02-08T21:57:33.131Z,8.93
2024-02-08T22:00:13.064Z,8.91
2024-02-08T22:02:47.613Z,8.87
2024-02-08T22:05:21.843Z,8.84
2024-02-08T22:07:55.624Z,8.80
2024-02-08T22:10:30.774Z,8.78
2024-02-08T22:13:07.593Z,8.74
2024-02-08T22:15:41.116Z,8.71
2024-02-08T22:18:14.504Z,8.69
2024-02-08T22:20:50.317Z,8.67
2024-02-08T22:23:23.946Z,8.66
2024-02-08T22:25:57.145Z,8.62
2024-02-08T22:28:31.343Z,8.58
2024-02-08T22:31:05.917Z,8.57
2024-02-08T22:33:40.176Z,8.55
2024-02-08T22:36:17.702Z,8.53
2024-02-08T22:38:51.332Z,8.49
2024-02-08T22:41:24.674Z,8.47
2024-02-08T22:44:00.736Z,8.42
2024-02-08T22:46:34.057Z,8.37
2024-02-08T22:49:08.765Z,8.34
2024-02-08T22:51:45.288Z,8.30
2024-02-08T22:54:19.099Z,8.27
2024-02-08T22:56:52.984Z,8.25
2024-02-08T22:59:26.651Z,8.23
2024-02-08T23:02:00.122Z,8.20
2024-02-08T23:04:34.023Z,8.18
2024-02-08T23:07:09.344Z,8.15
2024-02-08T23:09:43.155Z,8.12
2024-02-08T23:12:17.950Z,8.11
2024-02-08T23:14:51.308Z,8.10
2024-02-08T23:17:24.846Z,8.08
2024-02-08T23:20:00.297Z,8.06
2024-02-08T23:22:34.109Z,8.03
2024-02-08T23:25:09.429Z,8.01
2024-02-08T23:27:49.464Z,7.98
2024-02-08T23:30:25.789Z,7.94
2024-02-08T23:33:00.266Z,7.90
2024-02-08T23:35:37.697Z,7.87
2024-02-08T23:38:11.194Z,7.83
2024-02-08T23:40:45.478Z,7.82
2024-02-08T23:43:18.796Z,7.79
2024-02-08T23:45:52.631Z,7.70
2024-02-08T23:48:27.707Z,7.63
2024-02-08T23:51:01.061Z,7.58
2024-02-08T23:53:34.358Z,7.56
2024-02-08T23:56:10.104Z,7.56
2024-02-08T23:58:43.898Z,7.56
